Weather at Buffalo Niagara International Airport

Public forecast

Using degrees Fahrenheit for public forecast. Weather courtesy of forecast.io.

Current aviation weather report (METAR) for Buffalo Niagara International Airport

Retrieved 2020/10/20 11:24 UTC (32 minutes ago):

KBUF 201124Z 36007KT 6SM -RA BR OVC004 08/07 A3019

Aviation forecast (TAF) for Buffalo Niagara International Airport

Retrieved 2020/10/20 06:22 UTC (6 hours ago):

TAF KBUF 200520Z 2006/2106 35008KT 3SM -RA BR OVC003 FM201400 01006KT 6SM -RA BR OVC007 FM201700 02005KT P6SM OVC015 FM202000 05006KT P6SM OVC025 FM210200 08009KT P6SM BKN040